Time;durP1;ratioP1;P1;durP2;ratioP2;P2;SDS_P1;SDS_P2;PMS_P1;PMS_P2;Temp;Humidity;BMP_temperature;BMP_pressure;BME280_temperature;BME280_humidity;BME280_pressure;Samples;Min_cycle;Max_cycle;Signal;HPM_P1;HPM_P2
2021/07/18 00:00:24;;;;;;;7.72;3.40;;;;;;;21.47;54.61;102408.22;4931169;28;114883;-66
2021/07/18 00:02:51;;;;;;;5.40;3.47;;;;;;;21.45;54.61;102402.94;4931483;28;123898;-65
2021/07/18 00:05:18;;;;;;;6.15;3.60;;;;;;;21.45;54.69;102404.78;4932856;28;123733;-66
2021/07/18 00:07:46;;;;;;;5.47;3.40;;;;;;;21.42;54.75;102400.44;4934990;28;114655;-66
2021/07/18 00:10:13;;;;;;;6.05;3.45;;;;;;;21.42;54.92;102399.53;4932958;28;113768;-66
2021/07/18 00:12:41;;;;;;;6.78;3.60;;;;;;;21.39;54.95;102395.22;4933692;28;124007;-69
2021/07/18 00:15:11;;;;;;;8.18;3.40;;;;;;;21.37;55.12;102402.56;4934415;28;124083;-68
2021/07/18 00:17:39;;;;;;;6.53;4.03;;;;;;;21.36;55.06;102398.13;4929721;28;114587;-68
2021/07/18 00:20:13;;;;;;;7.50;3.83;;;;;;;21.32;55.11;102400.19;4931531;28;114764;-68
2021/07/18 00:22:42;;;;;;;6.28;3.60;;;;;;;21.29;55.26;102400.38;4935481;28;124074;-68
2021/07/18 00:25:11;;;;;;;6.25;3.50;;;;;;;21.28;55.32;102403.16;4935676;28;124232;-69
2021/07/18 00:27:38;;;;;;;6.22;3.42;;;;;;;21.25;55.39;102392.56;4919080;28;113278;-69
2021/07/18 00:30:07;;;;;;;6.22;3.70;;;;;;;21.21;55.47;102397.31;4933699;28;114298;-69
2021/07/18 00:32:35;;;;;;;6.40;3.55;;;;;;;21.19;55.62;102383.94;4933752;28;124319;-69
2021/07/18 00:35:03;;;;;;;6.47;3.58;;;;;;;21.18;55.70;102392.97;4933230;28;124638;-68
2021/07/18 00:37:30;;;;;;;6.20;3.50;;;;;;;21.14;55.80;102396.00;4934396;28;114669;-69
2021/07/18 00:39:57;;;;;;;5.50;3.42;;;;;;;21.12;56.05;102388.00;4932586;28;114128;-68
2021/07/18 00:42:24;;;;;;;5.93;3.63;;;;;;;21.12;56.12;102392.53;4950253;22;124486;-71
2021/07/18 00:44:51;;;;;;;7.63;4.35;;;;;;;21.11;55.95;102391.66;4931571;28;123006;-71
2021/07/18 00:47:21;;;;;;;5.28;3.42;;;;;;;21.11;56.28;102385.41;4949282;28;115320;-71
2021/07/18 00:49:49;;;;;;;7.15;4.05;;;;;;;21.08;56.19;102391.88;4942328;28;114805;-73
2021/07/18 00:52:16;;;;;;;6.13;3.90;;;;;;;21.06;56.31;102380.31;4938157;28;124464;-73
2021/07/18 00:54:43;;;;;;;7.22;4.15;;;;;;;21.05;56.25;102378.59;4939438;28;124727;-74
2021/07/18 00:57:11;;;;;;;8.07;4.28;;;;;;;21.04;56.43;102379.56;4942112;28;115062;-73
2021/07/18 00:59:39;;;;;;;6.75;3.75;;;;;;;21.05;56.40;102381.28;4940696;28;114323;-73
2021/07/18 01:02:07;;;;;;;8.10;4.05;;;;;;;21.03;56.72;102388.59;4939283;28;124877;-73
2021/07/18 01:04:34;;;;;;;6.50;3.67;;;;;;;21.03;56.41;102393.13;4931361;28;124211;-73
2021/07/18 01:07:02;;;;;;;6.43;4.10;;;;;;;21.00;56.47;102389.66;4946420;28;114002;-73
2021/07/18 01:09:29;;;;;;;7.40;4.32;;;;;;;20.99;56.57;102387.06;4943415;28;114007;-73
2021/07/18 01:11:57;;;;;;;8.43;4.25;;;;;;;20.98;56.59;102390.72;4941847;28;124532;-73
2021/07/18 01:14:25;;;;;;;7.90;4.43;;;;;;;20.97;56.64;102389.00;4942242;28;124056;-73
2021/07/18 01:16:53;;;;;;;7.63;4.80;;;;;;;20.97;56.63;102386.31;4946148;28;114483;-73
2021/07/18 01:19:21;;;;;;;6.45;4.78;;;;;;;20.97;56.70;102394.38;4954100;28;114240;-71
2021/07/18 01:22:00;;;;;;;7.70;4.35;;;;;;;20.94;56.63;102391.88;4937630;28;124552;-71
2021/07/18 01:24:29;;;;;;;9.43;4.78;;;;;;;20.90;56.70;102383.13;4941800;28;124669;-71
2021/07/18 01:26:58;;;;;;;8.68;4.65;;;;;;;20.89;57.01;102385.91;4942431;28;113552;-71
2021/07/18 01:29:29;;;;;;;7.15;4.72;;;;;;;20.87;57.13;102385.16;4938751;28;113923;-70
2021/07/18 01:31:57;;;;;;;7.90;4.50;;;;;;;20.85;56.98;102379.00;4938834;28;124289;-70
2021/07/18 01:34:25;;;;;;;8.10;4.80;;;;;;;20.84;57.16;102383.53;4945171;28;123937;-71
2021/07/18 01:36:57;;;;;;;9.60;4.78;;;;;;;20.82;57.26;102373.84;4940234;28;114760;-71
2021/07/18 01:39:24;;;;;;;7.78;5.18;;;;;;;20.80;57.15;102385.56;4944434;28;115322;-71
2021/07/18 01:41:55;;;;;;;7.20;4.93;;;;;;;20.80;57.38;102377.47;4939368;28;124120;-71
2021/07/18 01:44:42;;;;;;;8.52;5.00;;;;;;;20.79;57.18;102374.88;4944127;28;122655;-71
2021/07/18 01:47:35;;;;;;;7.75;4.63;;;;;;;20.79;57.10;102378.47;4942452;28;114309;-71
2021/07/18 01:50:06;;;;;;;8.23;5.10;;;;;;;20.79;57.40;102381.16;4941055;28;114458;-72
2021/07/18 01:52:34;;;;;;;7.70;5.03;;;;;;;20.79;57.15;102380.25;4936722;28;124404;-72
2021/07/18 01:55:10;;;;;;;7.25;4.75;;;;;;;20.77;57.18;102372.28;4939553;28;124278;-72
2021/07/18 01:57:37;;;;;;;8.52;5.43;;;;;;;20.75;57.14;102374.19;4924799;28;114019;-71
2021/07/18 02:00:11;;;;;;;8.23;5.28;;;;;;;20.75;57.29;102373.34;4961730;23;113736;-78
2021/07/18 02:02:44;;;;;;;7.78;4.93;;;;;;;20.72;57.20;102363.66;4941092;28;122653;-78
2021/07/18 02:05:15;;;;;;;8.00;4.93;;;;;;;20.71;57.26;102367.28;4929211;28;124483;-78
2021/07/18 02:07:44;;;;;;;8.27;4.78;;;;;;;20.70;57.19;102360.19;4932792;28;113717;-78
2021/07/18 02:10:13;;;;;;;8.07;5.00;;;;;;;20.69;57.29;102355.75;4922999;28;113277;-78
2021/07/18 02:12:43;;;;;;;10.00;5.20;;;;;;;20.67;57.50;102355.00;4914201;28;122434;-78
2021/07/18 02:15:12;;;;;;;8.20;5.07;;;;;;;20.66;57.25;102353.25;4911625;28;124030;-78
2021/07/18 02:17:39;;;;;;;12.30;5.22;;;;;;;20.65;57.25;102362.31;4913726;28;114218;-79
2021/07/18 02:20:12;;;;;;;9.00;5.57;;;;;;;20.64;57.34;102355.19;4905235;28;113163;-78
2021/07/18 02:22:45;;;;;;;7.25;4.95;;;;;;;20.63;57.50;102353.47;4918078;28;123026;-77
2021/07/18 02:25:18;;;;;;;9.75;5.68;;;;;;;20.62;57.38;102357.09;4922127;28;123749;-78
2021/07/18 02:27:45;;;;;;;8.30;5.00;;;;;;;20.59;57.44;102357.28;4910583;28;114462;-78
2021/07/18 02:30:16;;;;;;;9.00;5.55;;;;;;;20.56;57.44;102347.56;4909883;28;114793;-78
2021/07/18 02:32:43;;;;;;;8.77;5.50;;;;;;;20.56;57.39;102352.09;4906162;28;122964;-79
2021/07/18 02:35:14;;;;;;;8.50;5.35;;;;;;;20.54;57.82;102348.63;4909263;28;124209;-78
2021/07/18 02:37:42;;;;;;;10.02;5.78;;;;;;;20.52;57.74;102350.56;4908651;28;114037;-78
2021/07/18 02:40:10;;;;;;;9.77;5.82;;;;;;;20.51;57.61;102354.19;4907097;28;114588;-78
2021/07/18 02:42:38;;;;;;;9.93;5.65;;;;;;;20.49;57.75;102356.13;4904654;28;123663;-78
2021/07/18 02:45:08;;;;;;;9.63;5.63;;;;;;;20.47;57.77;102358.03;4925176;28;124755;-78
2021/07/18 02:47:36;;;;;;;9.00;5.03;;;;;;;20.44;57.74;102351.03;4884660;28;113734;-78
2021/07/18 02:50:08;;;;;;;8.82;5.07;;;;;;;20.42;57.89;102356.50;4909997;28;114256;-78
2021/07/18 02:52:35;;;;;;;7.70;5.03;;;;;;;20.40;57.77;102357.59;4905747;28;123363;-78
2021/07/18 02:55:04;;;;;;;8.38;5.45;;;;;;;20.38;57.97;102354.97;4908602;28;124131;-78
2021/07/18 02:57:31;;;;;;;9.32;5.07;;;;;;;20.37;58.04;102352.38;4906542;28;114164;-79
2021/07/18 02:59:58;;;;;;;9.68;5.28;;;;;;;20.36;58.00;102366.78;4911063;28;113700;-78
2021/07/18 03:02:26;;;;;;;9.35;5.38;;;;;;;20.34;58.24;102361.53;4913259;28;125866;-78
2021/07/18 03:04:53;;;;;;;7.90;5.07;;;;;;;20.34;58.29;102357.94;4912538;28;123879;-78
2021/07/18 03:07:20;;;;;;;10.50;5.32;;;;;;;20.33;58.37;102357.09;4912110;28;114062;-79
2021/07/18 03:09:47;;;;;;;8.52;5.10;;;;;;;20.35;58.61;102352.47;4895478;28;113200;-78
2021/07/18 03:12:14;;;;;;;8.10;5.15;;;;;;;20.33;58.66;102351.69;4898902;28;123717;-78
2021/07/18 03:14:41;;;;;;;7.30;5.20;;;;;;;20.32;58.78;102347.25;4905435;28;124415;-78
2021/07/18 03:17:10;;;;;;;11.05;5.85;;;;;;;20.31;59.24;102352.78;4911964;28;115346;-78
2021/07/18 03:19:37;;;;;;;10.95;5.43;;;;;;;20.30;59.27;102351.88;4908696;28;114775;-78
2021/07/18 03:22:04;;;;;;;8.85;5.70;;;;;;;20.31;59.27;102348.25;4905916;28;123895;-78
2021/07/18 03:24:31;;;;;;;8.38;5.32;;;;;;;20.30;59.41;102351.88;4896776;28;123601;-78
2021/07/18 03:26:58;;;;;;;8.82;5.40;;;;;;;20.32;59.58;102355.34;4909519;28;114419;-78
2021/07/18 03:29:26;;;;;;;9.52;5.40;;;;;;;20.32;59.83;102347.25;4911343;28;113406;-78
2021/07/18 03:31:53;;;;;;;9.95;5.60;;;;;;;20.32;59.83;102344.56;4905210;28;124792;-78
2021/07/18 03:34:21;;;;;;;7.57;4.93;;;;;;;20.33;59.74;102346.31;4901117;28;122376;-78
2021/07/18 03:36:48;;;;;;;8.80;5.60;;;;;;;20.36;59.76;102343.44;4901156;28;114035;-77
2021/07/18 03:39:15;;;;;;;9.27;5.55;;;;;;;20.37;59.91;102347.84;4899653;28;114394;-78
2021/07/18 03:41:42;;;;;;;8.88;5.07;;;;;;;20.39;60.09;102337.84;4898576;28;124187;-78
2021/07/18 03:44:09;;;;;;;9.10;5.22;;;;;;;20.40;60.02;102347.66;4906799;28;123471;-78
2021/07/18 03:46:36;;;;;;;8.00;5.32;;;;;;;20.42;60.07;102356.50;4906733;28;113789;-78
2021/07/18 03:49:03;;;;;;;8.77;5.30;;;;;;;20.46;60.16;102350.94;4903683;28;113344;-78
2021/07/18 03:51:30;;;;;;;8.43;5.20;;;;;;;20.47;60.10;102348.13;4901793;28;124623;-78
2021/07/18 03:53:58;;;;;;;14.52;6.32;;;;;;;20.48;60.13;102359.78;4921646;28;123851;-78
2021/07/18 03:56:25;;;;;;;11.07;6.18;;;;;;;20.49;60.25;102362.34;4909602;28;112628;-78
2021/07/18 03:58:52;;;;;;;10.32;5.65;;;;;;;20.50;60.29;102357.88;4894780;28;113214;-77
2021/07/18 04:01:20;;;;;;;9.90;5.97;;;;;;;20.51;60.20;102359.56;4906796;28;123476;-77
2021/07/18 04:03:47;;;;;;;13.77;6.82;;;;;;;20.53;60.46;102369.31;4903209;28;122935;-77
2021/07/18 04:06:15;;;;;;;11.65;6.40;;;;;;;20.52;60.42;102367.56;4911846;28;114894;-78
2021/07/18 04:08:43;;;;;;;12.32;6.43;;;;;;;20.51;60.53;102360.47;4908834;28;114260;-78
2021/07/18 04:11:11;;;;;;;19.50;6.82;;;;;;;20.50;60.71;102369.47;4903605;28;122320;-79
2021/07/18 04:13:39;;;;;;;12.93;7.20;;;;;;;20.51;60.77;102370.34;4901304;28;123749;-78
2021/07/18 04:16:06;;;;;;;15.20;6.85;;;;;;;20.52;60.76;102366.69;4904641;28;115158;-79
2021/07/18 04:18:34;;;;;;;10.18;6.38;;;;;;;20.53;60.82;102371.09;4910135;28;114092;-79
2021/07/18 04:21:02;;;;;;;12.85;6.43;;;;;;;20.51;61.05;102365.84;4892715;28;123640;-79
2021/07/18 04:23:30;;;;;;;11.10;5.97;;;;;;;20.49;61.07;102364.19;4891765;28;123200;-78
2021/07/18 04:25:57;;;;;;;14.02;6.03;;;;;;;20.49;61.09;102361.50;4903394;28;114299;-78
2021/07/18 04:28:24;;;;;;;11.43;5.93;;;;;;;20.49;61.13;102369.56;4913515;28;114152;-78
2021/07/18 04:30:51;;;;;;;11.43;6.18;;;;;;;20.48;61.26;102365.16;4906440;28;124413;-78
2021/07/18 04:33:19;;;;;;;12.23;6.22;;;;;;;20.50;61.31;102360.56;4909204;28;123679;-79
2021/07/18 04:35:46;;;;;;;11.38;6.30;;;;;;;20.51;61.37;102364.97;4904536;28;114634;-78
2021/07/18 04:38:13;;;;;;;13.95;6.68;;;;;;;20.52;61.49;102366.69;4907352;28;113835;-79
2021/07/18 04:40:41;;;;;;;10.57;6.00;;;;;;;20.51;61.38;102359.56;4887088;28;123465;-77
2021/07/18 04:43:08;;;;;;;15.90;6.13;;;;;;;20.51;61.53;102359.56;4906425;28;123693;-79
2021/07/18 04:45:35;;;;;;;10.60;5.65;;;;;;;20.50;61.66;102365.94;4901471;28;112492;-79
2021/07/18 04:48:03;;;;;;;11.25;5.80;;;;;;;20.52;61.49;102366.69;4887604;28;113348;-79
2021/07/18 04:50:31;;;;;;;13.93;5.53;;;;;;;20.51;61.76;102359.56;4907125;28;124134;-78
2021/07/18 04:52:58;;;;;;;12.57;5.20;;;;;;;20.54;61.58;102359.38;4908488;28;124131;-79
2021/07/18 04:55:25;;;;;;;8.68;5.30;;;;;;;20.56;61.82;102362.84;4889607;28;114410;-79
2021/07/18 04:57:52;;;;;;;11.98;5.30;;;;;;;20.60;61.86;102369.78;4897913;28;114921;-79
2021/07/18 05:00:21;;;;;;;11.73;5.60;;;;;;;20.62;61.76;102373.25;4907524;28;123146;-78
2021/07/18 05:02:50;;;;;;;11.70;5.10;;;;;;;20.62;61.90;102384.03;4913521;28;124502;-77
2021/07/18 05:05:19;;;;;;;11.18;5.90;;;;;;;20.63;61.77;102375.00;4911850;28;112274;-78
2021/07/18 05:07:59;;;;;;;11.52;5.80;;;;;;;20.62;61.77;102384.03;4925592;28;113236;-79
2021/07/18 05:10:27;;;;;;;9.13;6.00;;;;;;;20.64;61.96;102378.56;4921641;28;123641;-79
2021/07/18 05:12:57;;;;;;;9.95;5.80;;;;;;;20.65;62.02;102383.84;4903339;28;124265;-79
2021/07/18 05:15:26;;;;;;;13.32;5.78;;;;;;;20.67;61.87;102371.16;4903302;28;113453;-78
2021/07/18 05:17:56;;;;;;;9.77;5.90;;;;;;;20.71;62.13;102372.69;4924054;28;113116;-78
2021/07/18 05:20:23;;;;;;;9.20;5.95;;;;;;;20.75;62.05;102374.19;4906905;28;125805;-79
2021/07/18 05:22:51;;;;;;;11.18;5.82;;;;;;;20.80;62.13;102371.22;4901226;28;124246;-78
2021/07/18 05:25:19;;;;;;;10.23;5.32;;;;;;;20.83;62.07;102379.09;4917104;28;113342;-78
2021/07/18 05:27:46;;;;;;;8.25;5.32;;;;;;;20.84;61.85;102382.69;4904248;28;113963;-77
2021/07/18 05:30:13;;;;;;;10.15;6.05;;;;;;;20.83;61.80;102375.53;4907666;28;123987;-78
2021/07/18 05:32:41;;;;;;;10.27;6.25;;;;;;;20.84;62.27;102377.28;4910690;28;123483;-79
2021/07/18 05:35:10;;;;;;;8.75;5.65;;;;;;;20.85;62.09;102379.00;4907815;28;114025;-78
2021/07/18 05:37:37;;;;;;;10.18;5.97;;;;;;;20.86;62.15;102376.22;4909424;28;113388;-79
2021/07/18 05:40:07;;;;;;;8.85;5.70;;;;;;;20.89;62.21;102369.75;4885531;28;124547;-77
2021/07/18 05:42:35;;;;;;;11.30;6.57;;;;;;;20.94;62.35;102378.41;4905081;28;123680;-78
2021/07/18 05:45:08;;;;;;;9.20;6.47;;;;;;;20.97;62.33;102370.16;4906099;28;115355;-77
2021/07/18 05:47:36;;;;;;;10.63;6.35;;;;;;;21.00;62.25;102367.22;4908124;28;115042;-78
2021/07/18 05:50:08;;;;;;;12.55;6.60;;;;;;;21.05;62.48;102370.50;4906387;28;124410;-78
2021/07/18 05:52:36;;;;;;;10.35;6.90;;;;;;;21.13;62.44;102376.25;4901677;28;123674;-78
2021/07/18 05:55:05;;;;;;;12.60;6.57;;;;;;;21.24;62.40;102370.16;4909635;28;113204;-78
2021/07/18 05:57:32;;;;;;;11.77;6.10;;;;;;;21.33;62.38;102374.94;4902317;28;113592;-78
2021/07/18 05:59:59;;;;;;;10.30;6.38;;;;;;;21.38;62.05;102377.34;4909709;28;124205;-78
2021/07/18 06:02:26;;;;;;;10.40;6.53;;;;;;;21.45;61.96;102367.91;4912049;28;123899;-78
2021/07/18 06:04:53;;;;;;;10.02;6.32;;;;;;;21.52;61.88;102379.16;4908924;28;115085;-78
2021/07/18 06:07:20;;;;;;;10.15;6.28;;;;;;;21.57;61.76;102367.09;4907544;28;113744;-78
2021/07/18 06:09:47;;;;;;;9.82;6.07;;;;;;;21.64;61.65;102366.66;4913437;28;124223;-78
2021/07/18 06:12:14;;;;;;;10.35;6.35;;;;;;;21.68;61.65;102365.47;4904130;28;123638;-77
2021/07/18 06:14:43;;;;;;;10.55;6.10;;;;;;;21.71;61.49;102362.59;4921485;28;114262;-78
2021/07/18 06:17:13;;;;;;;8.95;5.45;;;;;;;21.75;61.41;102364.09;4921363;28;114107;-77
2021/07/18 06:19:40;;;;;;;9.57;6.10;;;;;;;21.79;61.42;102360.22;4917219;28;123294;-78
2021/07/18 06:22:08;;;;;;;9.63;6.07;;;;;;;21.84;61.29;102366.16;4923357;28;122866;-77
2021/07/18 06:24:35;;;;;;;11.75;6.57;;;;;;;21.89;61.17;102366.72;4900304;28;114804;-77
2021/07/18 06:27:04;;;;;;;10.02;6.38;;;;;;;21.95;61.38;102366.28;4907567;28;114229;-78
2021/07/18 06:29:31;;;;;;;9.25;6.18;;;;;;;22.02;61.35;102355.06;4915767;28;123843;-77
2021/07/18 06:31:58;;;;;;;10.60;6.47;;;;;;;22.12;61.50;102361.56;4915628;28;122738;-78
2021/07/18 06:34:26;;;;;;;9.25;5.82;;;;;;;22.25;61.56;102357.06;4912400;28;114037;-78
2021/07/18 06:36:53;;;;;;;10.02;6.43;;;;;;;22.39;61.60;102363.31;4914613;28;113235;-77
2021/07/18 06:39:20;;;;;;;10.13;6.10;;;;;;;22.53;61.66;102360.50;4911160;28;123048;-77
2021/07/18 06:41:48;;;;;;;9.73;5.40;;;;;;;22.68;61.35;102363.94;4912533;28;124054;-78
2021/07/18 06:44:15;;;;;;;8.95;5.57;;;;;;;22.83;61.12;102361.94;4906376;28;113635;-79
2021/07/18 06:46:43;;;;;;;7.70;4.75;;;;;;;22.96;60.65;102368.16;4904885;28;113313;-77
2021/07/18 06:49:10;;;;;;;9.00;5.10;;;;;;;23.11;60.49;102367.09;4899936;28;123858;-78
2021/07/18 06:51:37;;;;;;;7.53;4.63;;;;;;;23.26;60.19;102369.59;4933723;28;123925;-77
2021/07/18 06:54:04;;;;;;;7.55;4.20;;;;;;;23.41;60.05;102365.75;4931027;28;114405;-80
2021/07/18 06:56:32;;;;;;;6.22;4.03;;;;;;;23.58;59.75;102367.16;4919484;28;112875;-84
2021/07/18 06:59:00;;;;;;;7.35;4.15;;;;;;;23.74;59.44;102369.59;4933805;28;125056;-84
2021/07/18 07:01:27;;;;;;;6.57;4.22;;;;;;;23.88;59.20;102372.13;4927667;28;124310;-83
2021/07/18 07:03:55;;;;;;;5.35;3.50;;;;;;;24.04;59.00;102370.94;4926823;28;113458;-81
2021/07/18 07:06:23;;;;;;;5.22;3.25;;;;;;;24.18;58.59;102365.28;4932555;28;114832;-84
2021/07/18 07:08:52;;;;;;;5.03;2.95;;;;;;;24.35;58.08;102373.91;4905051;28;123098;-80
2021/07/18 07:11:20;;;;;;;5.13;3.25;;;;;;;24.50;57.72;102375.41;4912441;28;123681;-81
2021/07/18 07:13:50;;;;;;;6.63;3.28;;;;;;;24.64;57.48;102375.19;4919465;28;114051;-80
2021/07/18 07:16:18;;;;;;;4.97;3.28;;;;;;;24.78;57.31;102373.22;4917351;28;112955;-82
2021/07/18 07:18:47;;;;;;;8.15;3.90;;;;;;;24.90;57.14;102368.63;4924431;28;123608;-83
2021/07/18 07:21:14;;;;;;;6.18;3.80;;;;;;;25.02;56.89;102373.91;4912232;28;122748;-79
2021/07/18 07:23:42;;;;;;;6.32;3.90;;;;;;;25.18;56.39;102375.34;4901024;28;115404;-78
2021/07/18 07:26:10;;;;;;;6.35;3.97;;;;;;;25.32;56.32;102366.97;4907013;28;114896;-81
2021/07/18 07:28:37;;;;;;;6.88;3.50;;;;;;;25.45;56.04;102369.50;4883663;28;123859;-82
2021/07/18 07:31:04;;;;;;;5.70;3.75;;;;;;;25.59;55.50;102371.03;4900937;28;122795;-81
2021/07/18 07:33:33;;;;;;;5.55;3.60;;;;;;;25.73;55.39;102367.13;4913308;28;113866;-83
2021/07/18 07:36:03;;;;;;;5.80;3.53;;;;;;;25.87;55.41;102363.25;4911260;28;113551;-82
2021/07/18 07:38:31;;;;;;;5.68;3.67;;;;;;;26.01;55.46;102352.06;4913041;28;124115;-81
2021/07/18 07:40:58;;;;;;;6.05;3.95;;;;;;;26.15;55.38;102350.88;4928654;28;124606;-79
2021/07/18 07:43:25;;;;;;;5.40;4.03;;;;;;;26.30;55.11;102359.53;4916577;28;114412;-80
2021/07/18 07:45:53;;;;;;;5.22;3.30;;;;;;;26.39;54.35;102354.16;4928713;28;111844;-82
2021/07/18 07:48:20;;;;;;;5.05;3.35;;;;;;;26.50;53.97;102350.47;4929761;28;123043;-82
2021/07/18 07:50:48;;;;;;;6.80;3.30;;;;;;;26.59;53.49;102360.53;4922880;28;123524;-81
2021/07/18 07:53:15;;;;;;;4.13;2.75;;;;;;;26.72;53.30;102359.44;4925981;28;113638;-82
2021/07/18 07:55:43;;;;;;;4.57;2.85;;;;;;;26.83;53.40;102356.63;4927605;28;113721;-82
2021/07/18 07:58:11;;;;;;;3.97;2.58;;;;;;;26.96;53.13;102351.78;4926160;28;123614;-81
2021/07/18 08:00:41;;;;;;;3.92;2.40;;;;;;;27.09;52.93;102356.13;4927153;28;122421;-80
2021/07/18 08:03:09;;;;;;;4.53;2.50;;;;;;;27.18;52.66;102355.25;4931139;28;115281;-83
2021/07/18 08:05:37;;;;;;;2.95;2.25;;;;;;;27.27;51.86;102348.97;4925149;28;113099;-82
2021/07/18 08:08:04;;;;;;;4.85;2.10;;;;;;;27.36;51.06;102356.28;4920979;28;123033;-80
2021/07/18 08:10:32;;;;;;;2.78;1.98;;;;;;;27.42;50.85;102356.72;4929930;28;123914;-82
2021/07/18 08:12:59;;;;;;;2.67;2.00;;;;;;;27.45;51.11;102351.03;4917859;28;114640;-80
2021/07/18 08:15:26;;;;;;;2.97;1.90;;;;;;;27.53;50.78;102348.44;4918895;28;114616;-80
2021/07/18 08:17:54;;;;;;;2.58;1.63;;;;;;;27.61;50.88;102345.81;4924590;28;124270;-80
2021/07/18 08:20:25;;;;;;;2.25;1.58;;;;;;;27.67;50.07;102345.28;4935082;28;123258;-82
2021/07/18 08:22:53;;;;;;;3.35;1.67;;;;;;;27.72;50.42;102342.94;4922950;28;113462;-82
2021/07/18 08:25:22;;;;;;;3.58;1.92;;;;;;;27.79;49.93;102336.94;4921521;28;113172;-80
2021/07/18 08:27:50;;;;;;;3.88;2.13;;;;;;;27.87;49.73;102342.50;4918292;28;125595;-81
2021/07/18 08:30:18;;;;;;;2.80;1.70;;;;;;;27.91;49.52;102335.78;4903609;28;123293;-80
2021/07/18 08:32:50;;;;;;;3.83;2.00;;;;;;;27.96;49.64;102344.38;4918016;28;112645;-81
2021/07/18 08:35:19;;;;;;;3.05;2.00;;;;;;;28.02;49.22;102343.78;4916774;28;113380;-80
2021/07/18 08:37:46;;;;;;;3.25;2.08;;;;;;;28.07;49.08;102330.59;4915367;28;124070;-82
2021/07/18 08:40:14;;;;;;;3.53;2.20;;;;;;;28.08;48.92;102340.47;4916931;28;123497;-80
2021/07/18 08:42:42;;;;;;;3.90;2.30;;;;;;;28.13;49.08;102335.44;4923081;28;115276;-82
2021/07/18 08:45:11;;;;;;;3.88;2.28;;;;;;;28.19;48.73;102333.13;4935322;28;113724;-81
2021/07/18 08:47:39;;;;;;;4.05;2.30;;;;;;;28.23;48.90;102346.31;4911565;28;123856;-80
2021/07/18 08:50:07;;;;;;;3.72;2.30;;;;;;;28.28;48.85;102341.28;4904205;28;124415;-80
2021/07/18 08:52:36;;;;;;;4.03;2.00;;;;;;;28.33;48.64;102335.34;4902117;28;114296;-80
2021/07/18 08:55:07;;;;;;;3.53;2.00;;;;;;;28.39;48.37;102340.22;4903099;28;113037;-80
2021/07/18 08:57:35;;;;;;;4.78;2.25;;;;;;;28.44;48.52;102343.34;4908537;28;123975;-80
2021/07/18 09:00:04;;;;;;;3.38;2.00;;;;;;;28.49;47.94;102341.03;4914424;28;123102;-81
2021/07/18 09:02:33;;;;;;;3.05;1.65;;;;;;;28.51;47.93;102343.63;4898073;28;114287;-81
2021/07/18 09:05:01;;;;;;;3.20;2.10;;;;;;;28.52;47.70;102339.94;4896606;28;113500;-80
2021/07/18 09:07:29;;;;;;;4.15;2.00;;;;;;;28.59;47.64;102334.72;4896476;28;124567;-80
2021/07/18 09:10:05;;;;;;;4.13;2.13;;;;;;;28.62;47.86;102334.41;4882394;28;123656;-80
2021/07/18 09:12:32;;;;;;;3.30;2.38;;;;;;;28.67;47.59;102337.53;4891030;28;114028;-81
2021/07/18 09:15:00;;;;;;;3.03;2.15;;;;;;;28.72;47.98;102340.66;4916531;28;112590;-81
2021/07/18 09:17:34;;;;;;;2.80;1.77;;;;;;;28.78;47.85;102337.31;4916013;28;122940;-81
2021/07/18 09:20:15;;;;;;;3.20;2.47;;;;;;;28.85;47.82;102330.25;4902174;28;123689;-81
2021/07/18 09:22:43;;;;;;;3.17;2.17;;;;;;;28.92;47.65;102339.53;4900754;28;114925;-80
2021/07/18 09:25:11;;;;;;;4.25;1.95;;;;;;;28.96;47.20;102334.63;4897151;28;114261;-81
2021/07/18 09:27:38;;;;;;;3.30;2.20;;;;;;;28.99;47.20;102330.72;4898699;28;122965;-81
2021/07/18 09:30:11;;;;;;;3.55;2.00;;;;;;;29.03;47.20;102337.63;4891007;28;122944;-80
2021/07/18 09:32:40;;;;;;;3.38;2.10;;;;;;;29.06;47.16;102332.69;4896808;28;114907;-81
2021/07/18 09:35:10;;;;;;;4.50;2.60;;;;;;;29.09;47.02;102326.06;4899581;28;113526;-80
2021/07/18 09:37:43;;;;;;;4.65;2.13;;;;;;;29.10;46.87;102322.31;4904651;28;122994;-81
2021/07/18 09:40:11;;;;;;;3.53;2.28;;;;;;;29.11;46.51;102324.03;4897513;28;122196;-80
2021/07/18 09:42:47;;;;;;;3.95;2.33;;;;;;;29.13;46.56;102327.50;4918179;28;114858;-81
2021/07/18 09:45:17;;;;;;;4.40;2.38;;;;;;;29.16;46.76;102327.22;4901963;28;114035;-81
2021/07/18 09:47:54;;;;;;;5.15;2.30;;;;;;;29.19;46.68;102321.41;4884750;28;124037;-80
2021/07/18 09:50:25;;;;;;;3.83;2.30;;;;;;;29.23;46.60;102322.81;4913813;28;122976;-81
2021/07/18 09:53:08;;;;;;;4.60;2.38;;;;;;;29.26;46.53;102319.78;4922627;28;115730;-80
2021/07/18 09:55:53;;;;;;;4.78;2.15;;;;;;;29.31;46.41;102320.19;4924112;28;114176;-79
2021/07/18 09:58:21;;;;;;;3.65;2.28;;;;;;;29.33;46.29;102316.41;4925496;28;124731;-80
2021/07/18 10:00:48;;;;;;;2.85;2.00;;;;;;;29.35;46.11;102317.13;4915234;28;123224;-81
2021/07/18 10:03:23;;;;;;;3.63;2.15;;;;;;;29.39;46.16;102315.81;4915347;28;114398;-78
2021/07/18 10:06:09;;;;;;;2.83;1.73;;;;;;;29.43;45.91;102306.28;4914156;28;114162;-79
2021/07/18 10:08:38;;;;;;;4.15;2.20;;;;;;;29.49;45.95;102308.38;4911876;28;124025;-78
2021/07/18 10:11:07;;;;;;;3.63;2.17;;;;;;;29.50;46.17;102307.38;4917627;28;123963;-81
2021/07/18 10:13:36;;;;;;;3.63;2.22;;;;;;;29.53;46.05;102301.56;4926091;28;112872;-81
2021/07/18 10:16:06;;;;;;;3.38;2.10;;;;;;;29.59;45.72;102298.22;4918475;28;114538;-82
2021/07/18 10:18:36;;;;;;;2.95;1.77;;;;;;;29.64;45.62;102286.81;4920086;28;123398;-81
2021/07/18 10:21:04;;;;;;;4.50;2.20;;;;;;;29.69;45.68;102290.78;4926632;28;123145;-84
2021/07/18 10:23:33;;;;;;;4.35;2.42;;;;;;;29.75;45.66;102288.47;4918532;28;113980;-83
2021/07/18 10:26:18;;;;;;;4.53;2.20;;;;;;;29.80;45.38;102291.56;4890159;28;115392;-81
2021/07/18 10:28:46;;;;;;;3.42;1.98;;;;;;;29.84;45.93;102292.97;4911270;28;123517;-81
2021/07/18 10:31:21;;;;;;;3.50;2.38;;;;;;;29.91;45.23;102283.09;4906603;28;124870;-84
2021/07/18 10:33:50;;;;;;;2.97;2.20;;;;;;;29.93;45.18;102286.50;4901454;28;113836;-82
2021/07/18 10:36:21;;;;;;;4.05;2.58;;;;;;;29.94;45.03;102282.78;4911312;28;112702;-82
2021/07/18 10:38:48;;;;;;;3.33;2.40;;;;;;;30.00;44.91;102282.13;4901210;28;122349;-80
2021/07/18 10:41:16;;;;;;;4.28;2.17;;;;;;;30.08;44.57;102284.91;4892944;28;123088;-80
2021/07/18 10:43:48;;;;;;;3.42;2.10;;;;;;;30.12;44.88;102284.56;4909699;28;114761;-81
2021/07/18 10:46:40;;;;;;;3.03;2.15;;;;;;;30.14;44.84;102285.25;4908432;28;115121;-80
2021/07/18 10:49:12;;;;;;;3.22;1.80;;;;;;;30.20;44.75;102282.75;4908848;28;123667;-81
2021/07/18 10:51:49;;;;;;;3.85;2.53;;;;;;;30.27;43.98;102293.84;4893315;28;122360;-80
2021/07/18 10:54:19;;;;;;;3.72;2.17;;;;;;;30.26;43.83;102282.06;4900305;28;114355;-80
2021/07/18 10:56:52;;;;;;;3.58;1.95;;;;;;;30.26;44.27;102276.59;4906555;28;112030;-82
2021/07/18 10:59:41;;;;;;;5.30;1.92;;;;;;;30.29;43.97;102278.19;4892672;28;123739;-80
2021/07/18 11:02:16;;;;;;;3.50;2.00;;;;;;;30.32;43.94;102275.13;4905224;28;122951;-82
2021/07/18 11:04:49;;;;;;;2.55;1.77;;;;;;;30.37;43.86;102267.28;4907998;28;114920;-79
2021/07/18 11:07:27;;;;;;;3.50;2.10;;;;;;;30.41;44.15;102267.81;4919641;28;113356;-80
2021/07/18 11:10:00;;;;;;;3.17;2.10;;;;;;;30.45;43.72;102264.56;4924220;28;123519;-81
2021/07/18 11:12:34;;;;;;;3.15;2.00;;;;;;;30.46;43.78;102266.31;4888217;28;123070;-82
2021/07/18 11:15:29;;;;;;;4.20;2.00;;;;;;;30.50;43.38;102265.94;4909500;28;113193;-82
2021/07/18 11:18:04;;;;;;;3.85;1.85;;;;;;;30.56;43.11;102265.31;4904663;28;111839;-83
2021/07/18 11:20:55;;;;;;;2.45;1.88;;;;;;;30.57;43.18;102267.00;4907187;28;124339;-81
2021/07/18 11:23:38;;;;;;;2.47;1.77;;;;;;;30.60;43.17;102255.75;4893439;28;122518;-81